Date,TemperatureHighF,TemperatureAvgF,TemperatureLowF,DewpointHighF,DewpointAvgF,DewpointLowF,HumidityHigh,HumidityAvg,HumidityLow,PressureMaxIn,PressureMinIn,WindSpeedMaxMPH,WindSpeedAvgMPH,GustSpeedMaxMPH,PrecipitationSumIn
2013-1-1,26,18,11,22,15,6,91,85,75,29.66,29.53,6,3,22,0.00
2013-1-2,14,9,5,11,4,0,87,81,75,29.72,29.53,6,4,22,0.00
2013-1-3,17,12,9,14,9,5,90,85,81,29.97,29.73,5,3,22,0.00
2013-1-4,28,15,4,25,12,1,93,87,74,29.98,29.72,8,4,22,0.00
2013-1-5,27,20,11,24,16,7,95,84,68,30.31,29.72,5,2,22,0.01
2013-1-6,20,13,3,19,9,0,93,85,70,30.36,30.10,5,2,22,0.00
2013-1-7,21,14,6,18,8,-2,92,77,68,30.51,30.10,4,2,22,0.00
2013-1-8,34,20,1,28,15,-4,89,81,71,30.50,30.23,12,5,22,0.00
2013-1-9,35,28,22,29,24,19,92,83,64,30.54,30.03,4,2,22,0.06
2013-1-10,35,32,31,34,30,24,97,91,77,30.35,29.75,7,4,22,0.02
2013-1-11,31,26,24,26,21,19,86,80,76,30.51,30.35,8,5,22,0.00
2013-1-12,30,26,19,26,23,18,96,87,82,30.47,30.28,4,1,22,0.00
2013-1-13,38,31,20,37,30,18,98,94,88,30.30,30.14,6,2,22,0.02
2013-1-14,46,40,36,46,39,29,98,95,78,30.18,29.90,11,6,22,0.01
2013-1-15,35,25,16,29,18,11,87,73,63,30.38,30.18,4,2,22,0.00
2013-1-16,25,22,17,22,17,12,93,81,70,30.42,30.03,7,3,22,0.00
2013-1-17,36,26,12,33,22,6,94,87,70,30.23,29.78,8,4,22,0.04
2013-1-18,14,7,-2,7,1,-10,87,75,62,30.43,30.17,4,2,22,0.00
2013-1-19,26,14,-3,24,9,-8,93,80,62,30.48,30.13,9,3,22,0.00
2013-1-20,44,33,23,41,29,20,95,87,67,30.25,29.52,12,5,22,0.06
2013-1-21,35,16,9,27,4,-1,74,57,46,30.14,29.59,12,6,22,0.00
2013-1-22,14,9,4,6,1,-5,77,70,58,30.14,29.84,4,2,22,0.00
2013-1-23,4,0,-3,-5,-9,-14,76,64,54,29.96,29.84,11,5,22,0.00
2013-1-24,2,-2,-7,-8,-12,-14,72,64,53,29.92,29.83,8,4,22,0.00
2013-1-25,12,4,-5,3,-4,-13,74,68,56,30.11,29.88,6,3,22,0.00
2013-1-26,14,8,5,5,2,-1,83,74,63,30.12,29.98,5,2,22,0.00
2013-1-27,17,13,8,11,8,4,84,78,72,30.28,29.98,4,3,22,0.00
2013-1-28,22,14,9,8,4,1,79,63,47,30.32,30.20,4,2,22,0.00
2013-1-29,25,16,9,20,11,3,92,78,67,30.44,30.19,3,1,22,0.00
2013-1-30,33,22,13,31,19,11,93,89,83,30.43,30.01,10,5,22,0.02
2013-1-31,54,48,38,52,45,30,96,88,74,29.32,29.02,21,14,24,0.14
2013-2-1,38,27,15,30,13,5,75,56,47,29.97,29.24,13,7,22,0.00
2013-2-2,15,12,9,7,4,0,84,68,52,30.39,29.96,6,2,22,0.00
2013-2-3,28,20,12,28,16,3,96,86,65,30.40,29.71,5,2,22,0.00
2013-2-4,30,24,17,29,22,8,97,91,68,29.69,29.17,10,3,22,0.00
2013-2-5,17,10,-2,9,0,-9,75,63,48,30.25,29.59,11,7,22,0.00
2013-2-6,22,9,-8,16,1,-12,89,69,45,30.27,30.13,7,1,22,0.00
2013-2-7,19,6,0,17,-3,-12,91,67,51,30.68,30.13,7,4,22,0.00
2013-2-8,13,4,-6,5,-3,-10,86,75,51,30.79,30.58,3,1,22,0.00
2013-2-9,22,18,9,21,16,5,95,92,80,30.58,29.84,10,6,22,0.00
2013-2-10,23,21,17,22,20,16,95,94,93,30.30,29.83,10,6,22,0.00
2013-2-11,31,22,11,29,17,9,94,84,71,30.39,29.99,6,2,22,0.02
2013-2-12,41,33,27,39,31,25,97,95,91,29.98,29.38,11,4,22,0.20
2013-2-13,34,30,26,31,28,25,97,93,87,29.89,29.58,2,1,22,0.05
2013-2-14,31,28,26,29,26,24,95,92,86,30.10,29.86,2,0,22,0.00
2013-2-15,38,28,16,27,23,14,96,82,58,30.22,30.10,6,2,22,0.08
2013-2-16,45,37,32,36,31,27,92,80,69,30.19,29.97,8,4,22,0.09
2013-2-17,38,33,32,38,32,31,98,96,92,29.98,28.40,7,2,22,1.15
2013-2-18,33,26,23,32,25,18,98,94,82,29.53,28.42,9,6,22,0.00
2013-2-19,35,26,18,25,20,16,94,79,67,30.17,29.53,6,3,22,0.01
2013-2-20,35,29,15,32,26,14,97,90,74,30.15,29.55,15,6,24,0.11
2013-2-21,35,32,30,33,31,29,97,96,92,30.00,29.55,10,3,22,0.05
2013-2-22,30,27,24,29,23,18,96,86,78,30.50,30.01,10,6,22,0.00
2013-2-23,30,22,6,19,16,3,91,75,63,30.49,30.36,5,2,22,0.00
2013-2-24,27,14,1,20,11,-1,94,87,71,30.36,30.04,4,1,22,0.00
2013-2-25,33,25,14,27,21,13,95,85,74,30.36,30.04,5,2,22,0.00
2013-2-26,32,22,7,22,18,5,92,83,66,30.54,30.35,2,0,22,0.00
2013-2-27,34,18,1,25,13,-2,95,82,55,30.53,30.28,2,0,22,0.00
2013-2-28,36,25,17,29,23,15,94,90,76,30.27,29.88,3,1,22,0.00
2013-3-1,32,29,25,30,28,22,97,94,90,29.87,29.54,7,4,22,0.00
2013-3-2,34,32,31,33,32,30,98,97,96,29.62,29.50,5,2,22,0.13
2013-3-3,36,33,30,35,32,30,98,96,93,29.64,29.54,2,0,22,0.02
2013-3-4,38,34,31,36,33,31,98,95,90,29.85,29.54,7,1,22,0.39
2013-3-5,36,33,30,34,31,28,97,95,91,30.34,29.86,2,1,22,0.06
2013-3-6,36,32,30,30,28,27,93,87,75,30.59,30.34,4,1,22,0.00
2013-3-7,36,31,25,30,27,23,93,87,73,30.58,30.44,4,1,22,0.00
2013-3-8,36,29,23,31,26,22,95,90,81,30.44,30.39,5,2,22,0.00
2013-3-9,33,30,27,29,27,24,95,89,83,30.56,30.42,4,1,22,0.00
2013-3-10,36,30,23,30,26,22,96,86,76,30.60,30.49,3,0,22,0.00
2013-3-11,42,33,26,33,29,24,92,84,68,30.49,30.35,9,4,22,0.00
2013-3-12,45,37,32,39,34,29,93,88,79,30.42,30.33,12,7,22,0.00
2013-3-13,55,47,39,47,44,37,95,87,75,30.34,29.75,12,8,22,0.12
2013-3-14,48,41,31,47,36,26,98,83,49,29.74,29.59,11,4,22,0.98
2013-3-15,33,29,26,28,26,25,96,89,76,29.75,29.67,2,0,22,0.00
2013-3-16,30,25,10,27,19,8,96,80,54,29.91,29.66,3,1,22,0.07
2013-3-17,31,21,10,21,13,6,94,73,42,30.11,29.90,6,1,22,0.00
2013-3-18,23,15,8,10,5,2,82,64,46,30.42,30.11,6,3,22,0.00
2013-3-19,26,21,18,16,13,8,85,72,61,30.47,30.18,3,1,22,0.00
2013-3-20,37,27,19,34,24,15,96,87,73,30.16,29.37,17,8,23,0.11
2013-3-21,42,33,25,29,24,18,90,71,50,29.99,29.74,11,6,22,0.00
2013-3-22,32,29,28,30,28,27,97,95,86,29.75,29.38,9,5,22,0.00
2013-3-26,32,32,32,31,31,31,97,97,97,29.63,29.56,3,2,22,0.01
2013-3-27,36,33,31,34,31,30,98,95,89,29.93,29.63,5,3,22,0.24
2013-3-28,38,34,28,32,30,26,94,85,77,30.01,29.92,4,2,22,0.00
2013-3-29,36,31,20,29,26,19,95,83,72,30.09,29.99,5,2,22,0.00
2013-3-30,38,27,15,28,21,13,96,79,61,30.20,30.08,4,1,22,0.00
2013-3-31,46,32,13,26,18,11,96,62,30,30.29,30.20,4,1,22,0.00
2013-4-1,42,36,29,40,32,20,96,86,65,30.23,29.69,16,6,22,0.05
2013-4-2,39,35,28,38,28,18,96,76,50,29.82,29.60,13,6,22,0.06
2013-4-3,31,27,23,23,16,8,87,63,47,29.87,29.77,11,6,22,0.00
2013-4-4,43,34,27,24,19,12,74,56,29,30.14,29.87,9,5,22,0.00
2013-4-5,50,40,34,39,32,24,95,73,51,30.14,29.76,13,8,22,0.12
2013-4-6,39,32,28,38,27,15,97,82,58,30.31,29.62,6,3,22,0.10
2013-4-7,39,32,25,27,18,12,71,56,34,30.49,30.25,5,2,22,0.00
2013-4-8,47,37,30,42,32,23,97,84,63,30.31,30.08,9,4,22,0.02
2013-4-9,37,33,29,34,32,28,97,93,81,30.32,30.15,3,0,22,0.04
2013-4-10,43,35,31,38,33,29,97,93,79,30.16,30.00,4,1,22,0.01
2013-4-11,40,36,33,33,26,18,95,70,44,30.18,29.96,6,2,22,0.00
2013-4-12,38,34,31,32,28,24,94,79,61,30.40,30.18,5,2,22,0.00
2013-4-13,36,33,32,34,32,30,97,96,94,30.31,29.96,4,2,22,0.19
2013-4-14,38,34,32,36,33,31,98,97,94,30.28,30.08,4,1,22,0.42
2013-4-15,44,35,26,34,30,25,98,82,49,30.58,30.28,4,1,22,0.01
2013-4-16,56,40,24,37,31,23,97,73,40,30.59,30.09,16,7,22,0.02
2013-4-17,44,41,39,42,39,36,96,93,87,30.08,29.92,15,11,22,0.17
2013-4-18,38,36,34,28,26,25,70,68,64,30.53,30.46,7,5,22,0.00
2013-4-19,69,52,36,59,45,27,91,77,65,30.46,29.93,16,10,22,0.00
2013-4-20,64,56,45,59,53,41,95,90,80,30.11,29.76,16,10,22,0.09
2013-4-21,44,37,24,42,28,20,90,72,55,30.83,30.11,6,2,22,0.00
2013-4-22,43,32,19,31,25,17,95,75,52,31.04,30.83,4,1,22,0.00
2013-4-23,53,40,27,38,27,14,92,65,23,30.95,30.66,10,4,22,0.04
2013-4-24,60,49,38,56,47,36,96,93,86,30.65,30.09,13,8,22,0.20
2013-4-25,64,54,46,55,50,44,95,85,71,30.35,30.05,17,9,24,0.07
2013-4-26,51,39,35,49,35,32,95,87,82,30.61,30.35,5,3,22,0.03
2013-4-27,39,35,29,35,33,28,97,93,84,30.55,30.49,6,2,22,0.04
2013-4-28,48,39,28,36,33,26,98,80,58,30.51,30.43,5,2,22,0.01
2013-4-29,44,38,31,41,36,29,96,93,88,30.48,30.43,3,1,22,0.00
2013-4-30,55,46,37,49,43,36,96,89,79,30.59,30.48,3,1,22,0.00
2013-5-1,57,43,34,47,40,33,98,89,70,30.66,30.58,5,1,22,0.00
2013-5-2,44,40,37,39,38,36,97,90,81,30.74,30.63,7,4,22,0.00
2013-5-3,47,42,37,41,38,35,96,87,74,30.74,30.63,5,2,22,0.00
2013-5-4,52,41,28,41,35,27,98,80,59,30.63,30.49,4,1,22,0.00
2013-5-5,69,52,32,44,39,30,95,64,36,30.49,30.33,9,5,22,0.00
2013-5-6,66,51,44,42,39,38,80,66,39,30.39,30.34,10,8,22,0.00
2013-5-8,70,62,53,53,50,45,80,65,54,30.44,30.36,6,3,22,0.00
2013-5-9,71,60,52,58,55,50,94,82,62,30.37,30.15,13,8,22,0.00
2013-5-10,62,58,55,58,56,54,95,92,82,30.15,30.08,9,7,22,0.00
2013-5-13,61,55,47,53,40,32,95,59,36,30.15,29.83,16,7,23,0.03
2013-5-14,48,45,42,43,40,34,95,83,61,30.18,29.94,7,2,22,0.20
2013-5-15,58,47,39,46,40,35,96,79,45,30.06,29.84,13,6,22,0.67
2013-5-16,54,47,40,49,43,35,95,85,66,30.05,29.77,11,4,22,0.00
2013-5-17,49,44,38,48,42,36,96,93,85,30.21,29.78,4,3,22,0.07
2013-5-18,38,37,36,37,34,29,96,90,74,30.55,30.21,7,5,22,0.21
2013-5-19,50,40,28,38,31,26,95,69,51,30.60,30.50,5,2,22,0.00
2013-5-20,59,45,27,44,35,26,97,71,32,30.50,30.22,7,3,22,0.00
2013-5-21,57,49,43,52,47,42,97,92,79,30.23,30.17,8,3,22,0.03
2013-5-22,57,50,43,51,47,41,97,90,78,30.28,30.21,4,1,22,0.00
2013-5-23,65,56,48,60,52,44,93,87,79,30.25,30.00,13,7,22,0.00
2013-5-24,73,65,60,64,61,59,95,87,73,30.06,29.96,17,10,22,0.00
2013-5-25,63,52,44,61,50,43,99,95,89,30.15,29.97,11,3,22,0.50
2013-5-26,65,58,48,60,51,43,97,80,53,30.04,29.95,14,7,22,0.14
2013-5-27,53,49,45,47,45,43,96,86,73,30.18,29.94,8,3,22,0.05
2013-5-28,44,44,44,43,43,42,96,96,95,30.20,30.18,1,0,22,0.00
2013-5-29,71,63,54,48,43,40,79,48,34,30.51,30.32,7,6,22,0.00
2013-5-30,62,57,54,59,55,48,98,92,80,30.33,30.04,8,3,22,0.27
2013-5-31,82,69,53,67,61,53,98,79,53,30.10,29.89,9,4,22,0.02
2013-6-1,66,60,54,64,56,46,96,88,70,30.12,29.92,3,1,22,0.06
2013-6-2,56,56,56,53,53,53,92,92,91,29.97,29.96,0,0,22,0.00
2013-6-5,59,54,49,44,41,38,78,62,46,30.17,30.14,5,2,22,0.00
2013-6-6,66,56,44,46,40,31,83,57,35,30.35,30.16,6,2,22,0.00
2013-6-7,69,59,48,52,47,43,88,68,40,30.36,30.29,7,2,22,0.00
2013-6-8,56,52,49,51,49,46,97,90,73,30.32,29.87,12,4,22,1.49
2013-6-9,56,50,47,51,47,45,97,91,79,30.25,29.93,3,1,22,0.06
2013-6-10,70,59,48,56,52,46,94,79,54,30.29,30.15,6,2,22,0.17
2013-6-11,72,62,53,62,54,50,90,78,53,30.15,29.94,7,3,22,0.00
2013-6-12,59,55,51,56,53,50,97,91,84,29.95,29.82,7,2,22,0.19
2013-6-13,53,51,49,50,48,46,97,90,81,29.90,29.77,5,2,22,0.13
2013-6-14,60,52,48,53,49,46,95,89,75,29.90,29.83,2,0,22,0.00
2013-6-15,71,58,41,58,50,40,98,77,49,29.83,29.78,5,2,22,0.00
2013-6-16,70,60,52,49,45,38,87,58,34,30.01,29.83,5,2,22,0.03
2013-6-17,71,60,52,61,55,49,96,85,70,30.02,29.88,5,1,22,0.08
2013-6-18,66,60,58,60,58,56,96,92,82,29.96,29.91,5,2,22,0.02
2013-6-21,62,62,61,55,55,54,78,78,78,30.27,30.27,5,5,22,0.00
2013-6-22,68,65,63,57,55,54,80,70,62,30.19,30.15,5,4,22,0.00
2013-6-23,81,69,59,68,62,56,95,78,60,30.25,30.09,7,2,22,0.61
2013-6-24,77,69,61,70,65,60,96,87,76,30.08,29.83,6,4,22,0.01
2013-6-25,80,70,62,71,65,60,96,85,71,29.90,29.80,5,1,22,0.00
2013-6-26,67,57,52,65,55,50,95,93,89,30.06,29.79,3,2,22,0.00
2013-6-27,63,56,52,59,54,50,96,92,84,30.17,30.00,3,1,22,0.01
2013-6-28,61,56,53,58,54,51,97,93,87,30.16,29.97,7,3,22,0.60
2013-6-29,76,68,57,71,66,56,97,92,83,29.97,29.85,12,7,22,0.02
2013-6-30,77,70,65,70,66,64,96,90,77,30.08,29.86,11,7,22,0.11
2013-7-1,77,70,63,70,67,59,95,89,79,30.27,30.05,8,4,22,0.00
2013-7-2,69,62,54,59,54,51,93,75,61,30.43,30.26,2,0,22,0.00
2013-7-3,73,65,53,65,60,51,95,84,71,30.36,30.14,6,2,22,0.00
2013-7-4,88,76,62,72,66,60,95,74,40,30.17,30.03,6,3,22,0.00
2013-7-5,90,80,70,74,68,64,84,70,51,30.07,29.93,5,3,22,0.00
2013-7-6,88,79,70,72,68,63,87,70,54,30.02,29.87,5,2,22,0.00
2013-7-7,87,75,64,71,66,57,88,75,53,30.02,29.86,4,1,22,0.03
2013-7-8,76,65,51,61,56,49,93,72,47,30.24,30.00,2,1,22,0.00
2013-7-9,73,62,46,59,53,45,98,75,56,30.34,30.22,3,1,22,0.00
2013-7-10,78,66,53,60,54,46,97,69,37,30.30,30.06,9,4,22,0.00
2013-7-11,80,71,63,73,67,59,94,89,81,30.09,29.89,10,6,22,0.09
2013-7-12,72,67,51,69,59,49,94,77,63,30.35,29.98,4,1,22,0.00
2013-7-13,84,67,45,62,54,44,97,69,35,30.42,30.34,4,1,22,0.00
2013-7-14,89,76,58,69,62,56,91,66,41,30.36,30.19,5,2,22,0.00
2013-7-15,95,80,66,67,64,60,85,61,33,30.21,30.03,5,2,22,0.00
2013-7-16,74,69,52,66,59,49,90,73,56,30.36,30.11,3,1,22,0.00
2013-7-17,78,65,46,62,53,45,97,69,40,30.36,30.03,11,5,22,0.00
2013-7-18,77,69,57,70,62,53,95,80,56,30.15,29.92,13,4,22,0.31
2013-7-19,72,62,50,69,58,48,96,88,66,30.16,29.65,10,4,22,0.06
2013-7-20,87,77,70,72,69,66,91,76,56,29.69,29.60,10,6,22,0.00
2013-7-21,72,67,59,67,56,52,89,70,51,30.11,29.66,7,2,22,0.00
2013-7-22,77,67,53,59,54,47,94,67,39,30.18,30.08,5,1,22,0.00
2013-7-23,75,66,59,68,58,54,97,77,52,30.15,29.67,8,3,22,1.42
2013-7-24,79,73,69,71,69,68,96,89,74,29.95,29.62,8,4,22,0.01
2013-7-25,71,65,62,68,61,58,95,87,80,30.37,29.96,4,1,22,0.00
2013-7-26,84,69,62,76,67,60,98,92,75,30.37,30.17,8,2,22,0.59
2013-7-29,73,69,67,68,66,66,96,93,86,30.22,30.18,7,3,22,0.04
2013-7-30,77,71,67,71,68,66,97,90,77,30.22,30.03,5,2,15,0.04
2013-7-31,78,69,60,66,62,59,98,78,53,30.13,30.04,6,2,15,0.01
2013-8-1,82,71,61,67,61,57,91,74,44,30.15,30.10,6,2,15,0.00
2013-8-2,75,68,58,65,62,56,96,83,66,30.10,29.91,5,2,15,0.04
2013-8-3,79,68,59,66,63,58,97,85,59,29.91,29.79,9,4,15,0.09
2013-8-4,78,68,59,64,61,58,97,80,53,29.86,29.78,6,3,15,0.01
2013-8-5,75,63,54,66,59,53,98,89,68,29.92,29.80,4,1,15,0.37
2013-8-6,76,65,56,62,58,54,97,80,54,30.24,29.89,5,2,15,0.02
2013-8-7,79,68,54,65,59,53,95,77,56,30.32,30.22,4,1,15,0.00
2013-8-8,78,66,52,61,57,51,98,74,47,30.31,30.22,8,2,15,0.00
2013-8-9,74,69,66,69,65,58,96,88,72,30.25,30.06,8,5,15,0.82
2013-8-10,79,70,63,70,64,53,96,83,62,30.06,29.73,10,5,15,0.24
2013-8-11,75,66,57,58,54,50,85,66,45,30.00,29.87,7,3,15,0.00
2013-8-12,78,68,58,63,58,55,91,74,53,30.05,29.97,7,3,15,0.00
2013-8-13,78,68,60,65,61,56,89,76,59,30.04,29.90,7,4,15,0.00
2013-8-14,78,68,62,69,65,61,96,88,72,29.92,29.65,8,3,15,0.13
2013-8-15,74,65,58,61,56,51,95,75,48,30.14,29.72,7,3,15,0.00
2013-8-16,78,68,58,63,59,56,93,75,49,30.31,30.12,7,4,15,0.00
2013-8-17,74,64,52,64,58,51,97,82,60,30.34,30.28,5,1,15,0.00
2013-8-18,77,67,52,61,56,51,98,72,47,30.34,30.08,8,4,15,0.00
2013-8-19,80,68,59,66,60,-100,94,78,58,30.09,29.81,9,4,15,0.00
2013-8-20,72,62,55,66,59,53,98,88,75,30.25,29.94,2,1,15,0.00
2013-8-21,83,70,55,68,63,53,97,78,54,30.24,30.04,10,5,17,0.00
2013-8-22,84,75,67,68,64,61,82,70,54,30.08,29.86,13,7,16,0.00
2013-8-23,72,65,53,65,60,50,93,84,74,30.16,29.76,8,2,15,0.01
2013-8-24,68,59,44,55,51,42,94,75,57,30.39,30.16,2,1,15,0.00
2013-8-25,79,60,41,61,51,40,97,75,40,30.41,30.29,4,0,15,0.00
2013-8-26,72,64,53,62,57,50,97,80,58,30.29,29.98,8,4,15,0.02
2013-8-27,77,66,60,68,63,59,96,90,73,30.04,29.93,7,3,15,0.00
2013-8-28,78,67,61,70,64,59,98,89,73,30.22,29.99,3,0,15,0.00
2013-8-29,65,62,59,61,59,56,93,89,83,30.26,30.06,3,1,15,0.00
2013-8-30,62,59,55,59,56,51,97,90,80,30.05,29.78,4,1,15,0.33
2013-8-31,77,63,50,64,58,49,98,83,60,30.04,29.82,3,0,15,0.01
2013-9-1,71,65,62,67,63,61,96,94,88,30.14,29.93,5,1,15,0.08
2013-9-2,64,62,60,62,59,58,96,91,83,30.26,30.12,5,0,15,0.04
2013-9-3,70,66,62,69,65,60,98,96,94,30.17,29.85,10,6,20,1.25
2013-9-4,74,69,64,68,66,62,97,91,78,29.90,29.76,9,5,15,0.00
2013-9-5,65,55,44,62,51,43,98,85,75,30.14,29.90,2,0,15,0.09
2013-9-6,62,53,43,49,46,41,97,77,55,30.23,30.12,8,3,15,0.01
2013-9-7,71,62,52,56,52,49,91,72,50,30.12,29.87,14,8,20,0.00
2013-9-8,62,57,49,59,55,45,96,92,71,29.87,29.63,8,4,15,1.11
2013-9-9,63,54,46,48,45,40,93,74,47,30.20,29.85,10,4,15,0.04
2013-9-10,65,60,53,59,55,48,93,85,75,30.30,30.19,10,5,15,0.00
2013-9-11,72,66,59,68,63,57,97,91,81,30.29,29.99,10,4,15,0.09
2013-9-12,76,71,66,71,67,64,96,89,78,30.04,29.86,9,4,15,0.03
2013-9-13,70,68,66,69,67,63,97,95,91,29.88,29.74,9,5,15,1.99
2013-9-14,70,67,66,68,66,65,98,97,93,29.93,29.71,7,2,15,0.00
2013-9-16,66,57,50,58,53,45,95,87,70,30.17,30.06,5,1,15,0.13
2013-9-17,62,53,47,48,43,37,84,69,58,30.36,30.18,3,1,15,0.00
2013-9-18,67,67,67,52,51,50,58,56,55,30.12,30.12,7,6,15,0.00
2013-9-20,56,51,46,50,44,-100,90,80,77,30.34,30.30,3,-14,15,0.00
2013-9-21,70,59,44,60,54,42,94,84,69,30.32,30.05,13,6,20,0.00
2013-9-22,77,68,60,67,63,58,94,83,67,30.05,29.78,12,8,22,0.00
2013-9-23,69,59,50,66,56,46,96,89,78,29.78,29.68,7,3,15,0.79
2013-9-24,55,51,46,48,46,45,95,86,74,29.88,29.76,5,2,15,0.00
2013-9-25,59,53,49,54,50,47,97,92,79,29.90,29.84,3,1,15,0.39
2013-9-26,56,54,53,54,53,51,97,94,87,30.12,29.89,5,4,15,0.17
2013-9-27,59,54,43,52,49,42,95,86,73,30.36,30.12,5,3,15,0.00
2013-9-28,73,56,39,56,48,38,98,78,44,30.43,30.33,5,1,15,0.01
2013-9-29,59,56,54,51,49,46,87,78,63,30.33,30.24,6,4,15,0.00
2013-9-30,69,58,46,57,51,44,97,79,50,30.26,30.15,6,2,15,0.00
2013-10-1,68,57,52,59,54,50,96,89,73,30.15,29.90,2,0,15,0.09
2013-10-2,72,60,51,62,56,50,97,86,67,29.90,29.70,7,2,15,0.01
2013-10-3,66,59,50,55,49,46,92,70,55,30.01,29.76,4,2,15,0.00
2013-10-4,58,53,47,48,44,42,89,72,57,30.13,29.99,4,2,15,0.00
2013-10-5,49,45,42,43,41,40,94,87,79,30.18,30.13,2,0,15,0.00
2013-10-9,59,52,42,48,45,40,96,76,61,30.55,30.45,5,1,15,0.00
2013-10-10,66,56,48,51,48,45,94,77,50,30.45,30.24,8,4,15,0.00
2013-10-11,59,51,43,55,48,42,97,89,81,30.42,30.24,3,1,15,0.00
2013-10-12,50,44,30,43,37,28,94,75,62,30.59,30.42,4,2,15,0.00
2013-10-13,53,42,29,42,36,28,97,81,62,30.61,30.52,2,0,15,0.00
2013-10-14,62,47,28,51,42,27,98,84,60,30.52,30.32,7,3,15,0.01
2013-10-15,59,51,34,54,46,33,95,85,63,30.46,30.28,3,1,15,0.01
2013-10-16,60,46,29,52,41,28,98,84,60,30.47,30.19,6,2,15,0.20
2013-10-17,69,60,54,65,58,52,97,93,81,30.18,29.81,7,3,15,0.36
2013-10-18,58,54,50,55,53,49,97,94,86,29.85,29.67,6,2,15,0.09
2013-10-19,58,51,40,52,46,39,97,85,64,30.01,29.71,6,2,15,0.02
2013-10-20,58,50,42,52,47,41,97,89,65,30.01,29.76,7,2,15,0.20
2013-10-21,48,46,42,44,41,38,94,84,75,30.15,29.85,5,2,15,0.00
2013-10-22,58,48,36,48,42,34,98,83,51,30.19,29.87,7,3,15,0.04
2013-10-23,54,47,34,51,43,33,96,85,59,29.86,29.66,6,1,15,0.65
2013-10-24,49,43,37,41,34,26,97,72,49,29.74,29.59,8,3,15,0.00
2013-10-25,49,43,35,38,34,29,85,71,57,30.03,29.73,8,4,15,0.00
2013-10-26,48,42,34,38,34,31,93,76,60,30.16,30.03,7,2,15,0.00
2013-10-27,47,42,36,46,40,35,97,95,86,30.14,29.87,6,1,15,0.34
2013-10-28,47,42,37,40,36,30,97,81,54,30.28,29.95,7,3,15,0.01
2013-10-29,44,36,30,33,28,24,87,74,53,30.51,30.28,6,2,15,0.00
2013-10-30,44,33,25,34,27,21,88,77,62,30.50,30.25,9,2,15,0.00
2013-10-31,45,38,29,41,29,22,92,70,46,30.38,30.09,9,3,15,0.06
2013-11-1,65,58,43,61,56,41,97,94,81,30.09,29.45,18,11,29,0.67
2013-11-2,63,54,47,57,48,42,90,78,61,29.85,29.48,16,5,24,0.00
2013-11-3,47,40,37,41,31,26,81,68,60,30.34,29.84,3,2,15,0.00
2013-11-4,40,38,36,33,29,25,87,69,59,30.81,30.34,5,3,15,0.04
2013-11-5,44,36,27,33,28,24,93,74,50,30.86,30.68,5,1,15,0.01
2013-11-6,51,43,29,43,38,26,89,82,70,30.70,30.21,10,5,20,0.00
2013-11-7,58,53,47,55,50,43,97,89,78,30.21,29.66,14,8,19,0.40
2013-11-8,48,39,34,47,33,29,97,79,65,29.80,29.68,3,1,15,0.13
2013-11-9,38,35,33,34,30,26,96,83,70,30.20,29.80,4,1,15,0.11
2013-11-10,41,36,29,38,32,28,97,85,63,30.23,29.87,5,1,15,0.23
2013-11-11,43,41,38,42,40,37,96,96,92,30.04,29.75,3,0,15,1.81
2013-11-12,42,35,28,40,33,22,95,91,77,30.06,29.91,7,3,17,0.21
2013-11-13,31,28,25,24,21,18,82,73,63,30.16,30.01,5,3,15,0.00
2013-11-14,39,32,22,32,25,17,87,76,64,30.18,30.05,9,3,15,0.00
2013-11-15,49,41,36,41,36,31,95,81,74,30.35,30.17,9,3,15,0.00
2013-11-16,50,40,33,44,38,32,97,92,67,30.52,30.34,4,0,15,0.00
2013-11-17,46,36,31,44,36,30,98,96,88,30.57,30.40,4,0,15,0.02
2013-11-18,57,48,35,56,46,34,98,94,87,30.39,29.68,14,8,20,0.78
2013-11-19,54,44,32,53,40,26,98,85,65,29.94,29.65,4,2,15,0.01
2013-11-20,33,30,27,27,24,20,95,76,62,30.46,29.94,7,4,15,0.00
2013-11-21,40,36,31,35,28,21,83,71,62,30.49,30.38,6,4,15,0.00
2013-11-22,44,37,28,37,32,26,96,85,74,30.37,29.91,4,1,15,0.00
2013-11-23,36,33,28,34,30,23,97,91,69,29.91,29.48,8,3,20,0.05
2013-11-26,36,32,26,34,30,24,94,91,87,30.53,30.40,7,2,15,0.03
2013-11-27,57,42,24,56,41,22,97,95,92,30.51,29.51,15,7,25,0.69
2013-11-28,60,44,25,58,40,18,97,85,70,30.29,29.37,18,10,34,0.06
2013-11-29,25,23,20,20,15,13,85,72,63,30.67,30.29,7,3,15,0.00
2013-11-30,29,22,11,20,14,8,91,73,52,30.84,30.67,4,2,15,0.00
2013-12-1,34,27,11,31,25,8,96,89,77,30.76,30.42,12,4,16,0.00
2013-12-2,40,35,29,38,34,28,98,96,92,30.43,30.16,1,0,15,0.04
2013-12-3,43,39,37,42,39,36,98,98,97,30.15,29.63,7,1,15,0.62
2013-12-4,40,34,29,40,34,29,98,98,98,30.18,29.39,10,6,20,1.90
2013-12-5,33,30,29,32,29,27,98,95,90,30.46,30.18,8,2,15,0.00
2013-12-6,45,39,33,44,38,32,98,97,94,30.24,29.93,10,4,15,0.36
2013-12-7,34,31,26,34,24,15,98,76,61,30.27,30.06,5,2,15,0.00
2013-12-8,26,23,20,16,14,8,77,67,59,30.61,30.27,6,3,15,0.00
2013-12-9,25,21,17,23,16,9,94,82,61,30.67,30.10,5,2,15,0.00
2013-12-10,33,30,25,30,26,21,96,86,73,30.09,29.72,7,3,15,0.00
2013-12-11,26,19,14,20,10,6,90,68,53,30.12,29.71,7,4,15,0.00
2013-12-12,18,9,2,13,1,-5,79,69,58,30.20,30.10,5,3,15,0.00
2013-12-13,18,8,-1,14,3,-5,89,80,65,30.27,29.92,8,3,15,0.00
2013-12-14,7,3,-1,-1,-4,-8,82,73,65,30.73,30.28,6,4,15,0.00
2013-12-15,30,17,4,29,14,-1,97,90,79,30.72,29.35,8,3,15,0.00
2013-12-16,29,22,14,28,20,10,97,91,83,30.01,29.44,10,4,16,0.00
2013-12-17,17,8,-9,11,4,-12,90,83,72,30.51,30.02,7,3,15,0.00
2013-12-18,29,18,-9,28,17,-12,97,94,85,30.47,29.57,9,2,15,0.00
2013-12-19,25,20,14,24,16,11,96,87,76,30.13,29.77,6,3,15,0.00
2013-12-20,24,19,17,23,15,11,95,83,72,30.41,30.14,5,1,15,0.00
2013-12-21,34,31,24,33,30,23,97,96,94,30.21,29.98,3,1,15,0.45
2013-12-22,32,27,23,31,26,22,97,96,94,30.40,30.12,6,3,15,0.00
2013-12-23,32,27,23,31,26,22,98,96,95,30.43,30.13,5,1,15,0.00
2013-12-24,32,30,25,32,29,24,98,97,96,30.16,30.04,4,1,15,0.00
2013-12-25,25,19,11,24,16,9,96,89,78,30.67,30.07,5,3,15,0.00
2013-12-26,26,14,-3,25,11,-6,96,90,85,30.73,30.27,6,2,15,0.00
2013-12-27,31,25,16,30,23,13,97,93,88,30.26,30.09,1,0,15,0.00
2013-12-28,31,21,9,28,19,7,93,89,80,30.22,29.98,5,2,18,0.00
2013-12-29,31,22,18,28,19,14,95,86,73,30.35,30.03,4,2,15,0.00
2013-12-30,33,27,10,32,25,6,98,93,79,30.10,29.51,10,2,15,0.02
2013-12-31,10,4,0,5,0,-4,86,81,76,30.24,30.10,2,0,15,0.00
2014-1-1,8,2,-4,2,-3,-7,87,81,75,30.45,30.14,2,0,15,0.00
2014-1-2,0,-7,-12,-6,-13,-17,85,77,64,30.62,30.40,3,1,15,0.00